sensor_id;sensor_type;location;lat;lon;timestamp;P1;durP1;ratioP1;P2;durP2;ratioP2
7719;SDS011;3902;49.474;8.616;2024-03-25T00:01:40;5.30;;;3.10;;
7719;SDS011;3902;49.474;8.616;2024-03-25T00:04:06;5.93;;;2.87;;
7719;SDS011;3902;49.474;8.616;2024-03-25T00:06:31;4.03;;;2.60;;
7719;SDS011;3902;49.474;8.616;2024-03-25T00:08:59;4.30;;;3.30;;
7719;SDS011;3902;49.474;8.616;2024-03-25T00:11:25;6.27;;;3.23;;
7719;SDS011;3902;49.474;8.616;2024-03-25T00:13:51;4.17;;;2.83;;
7719;SDS011;3902;49.474;8.616;2024-03-25T00:16:16;4.10;;;3.07;;
7719;SDS011;3902;49.474;8.616;2024-03-25T00:18:41;5.40;;;2.73;;
7719;SDS011;3902;49.474;8.616;2024-03-25T00:21:07;4.03;;;3.03;;
7719;SDS011;3902;49.474;8.616;2024-03-25T00:23:32;4.30;;;2.70;;
7719;SDS011;3902;49.474;8.616;2024-03-25T00:25:58;4.80;;;2.70;;
7719;SDS011;3902;49.474;8.616;2024-03-25T00:28:23;3.83;;;2.80;;
7719;SDS011;3902;49.474;8.616;2024-03-25T00:30:49;3.90;;;2.90;;
7719;SDS011;3902;49.474;8.616;2024-03-25T00:33:14;4.17;;;2.63;;
7719;SDS011;3902;49.474;8.616;2024-03-25T00:35:41;5.60;;;2.87;;
7719;SDS011;3902;49.474;8.616;2024-03-25T00:38:07;3.30;;;2.70;;
7719;SDS011;3902;49.474;8.616;2024-03-25T00:40:33;4.63;;;3.03;;
7719;SDS011;3902;49.474;8.616;2024-03-25T00:42:59;5.63;;;3.27;;
7719;SDS011;3902;49.474;8.616;2024-03-25T00:45:25;4.50;;;3.00;;
7719;SDS011;3902;49.474;8.616;2024-03-25T00:47:55;4.47;;;3.20;;
7719;SDS011;3902;49.474;8.616;2024-03-25T00:50:24;5.90;;;3.20;;
7719;SDS011;3902;49.474;8.616;2024-03-25T00:52:50;4.17;;;2.70;;
7719;SDS011;3902;49.474;8.616;2024-03-25T00:55:16;3.47;;;2.83;;
7719;SDS011;3902;49.474;8.616;2024-03-25T00:57:41;3.93;;;2.43;;
7719;SDS011;3902;49.474;8.616;2024-03-25T01:00:07;6.60;;;3.00;;
7719;SDS011;3902;49.474;8.616;2024-03-25T01:02:33;6.53;;;3.07;;
7719;SDS011;3902;49.474;8.616;2024-03-25T01:04:59;4.33;;;2.80;;
7719;SDS011;3902;49.474;8.616;2024-03-25T01:07:24;3.33;;;2.70;;
7719;SDS011;3902;49.474;8.616;2024-03-25T01:09:50;3.63;;;2.80;;
7719;SDS011;3902;49.474;8.616;2024-03-25T01:12:16;3.43;;;2.33;;
7719;SDS011;3902;49.474;8.616;2024-03-25T01:14:41;4.10;;;2.73;;
7719;SDS011;3902;49.474;8.616;2024-03-25T01:17:07;3.90;;;2.90;;
7719;SDS011;3902;49.474;8.616;2024-03-25T01:19:33;3.93;;;3.27;;
7719;SDS011;3902;49.474;8.616;2024-03-25T01:21:58;3.90;;;3.07;;
7719;SDS011;3902;49.474;8.616;2024-03-25T01:24:24;3.90;;;2.90;;
7719;SDS011;3902;49.474;8.616;2024-03-25T01:26:50;3.77;;;3.00;;
7719;SDS011;3902;49.474;8.616;2024-03-25T01:29:16;5.13;;;2.83;;
7719;SDS011;3902;49.474;8.616;2024-03-25T01:31:42;3.93;;;3.07;;
7719;SDS011;3902;49.474;8.616;2024-03-25T01:34:07;4.70;;;3.33;;
7719;SDS011;3902;49.474;8.616;2024-03-25T01:36:33;2.90;;;2.60;;
7719;SDS011;3902;49.474;8.616;2024-03-25T01:39:00;2.87;;;2.50;;
7719;SDS011;3902;49.474;8.616;2024-03-25T01:41:25;2.80;;;2.50;;
7719;SDS011;3902;49.474;8.616;2024-03-25T01:43:51;2.80;;;2.60;;
7719;SDS011;3902;49.474;8.616;2024-03-25T01:46:17;4.67;;;2.77;;
7719;SDS011;3902;49.474;8.616;2024-03-25T01:48:44;6.33;;;3.20;;
7719;SDS011;3902;49.474;8.616;2024-03-25T01:51:10;3.70;;;2.50;;
7719;SDS011;3902;49.474;8.616;2024-03-25T01:53:37;4.10;;;3.00;;
7719;SDS011;3902;49.474;8.616;2024-03-25T01:56:04;4.40;;;3.13;;
7719;SDS011;3902;49.474;8.616;2024-03-25T01:58:30;3.20;;;2.70;;
7719;SDS011;3902;49.474;8.616;2024-03-25T02:00:56;2.97;;;2.67;;
7719;SDS011;3902;49.474;8.616;2024-03-25T02:03:26;6.10;;;2.80;;
7719;SDS011;3902;49.474;8.616;2024-03-25T02:05:52;3.33;;;2.73;;
7719;SDS011;3902;49.474;8.616;2024-03-25T02:08:22;3.37;;;2.70;;
7719;SDS011;3902;49.474;8.616;2024-03-25T02:10:48;3.30;;;2.60;;
7719;SDS011;3902;49.474;8.616;2024-03-25T02:13:14;5.60;;;2.80;;
7719;SDS011;3902;49.474;8.616;2024-03-25T02:15:41;4.73;;;2.93;;
7719;SDS011;3902;49.474;8.616;2024-03-25T02:18:06;3.00;;;2.40;;
7719;SDS011;3902;49.474;8.616;2024-03-25T02:20:32;3.60;;;2.87;;
7719;SDS011;3902;49.474;8.616;2024-03-25T02:22:58;2.50;;;1.87;;
7719;SDS011;3902;49.474;8.616;2024-03-25T02:25:23;4.30;;;2.60;;
7719;SDS011;3902;49.474;8.616;2024-03-25T02:27:49;3.70;;;2.70;;
7719;SDS011;3902;49.474;8.616;2024-03-25T02:30:15;3.40;;;2.97;;
7719;SDS011;3902;49.474;8.616;2024-03-25T02:32:41;5.70;;;3.00;;
7719;SDS011;3902;49.474;8.616;2024-03-25T02:35:07;2.67;;;2.47;;
7719;SDS011;3902;49.474;8.616;2024-03-25T02:37:37;7.03;;;3.00;;
7719;SDS011;3902;49.474;8.616;2024-03-25T02:40:04;3.30;;;2.70;;
7719;SDS011;3902;49.474;8.616;2024-03-25T02:42:32;2.80;;;2.30;;
7719;SDS011;3902;49.474;8.616;2024-03-25T02:44:58;4.87;;;2.90;;
7719;SDS011;3902;49.474;8.616;2024-03-25T02:47:24;5.00;;;2.90;;
7719;SDS011;3902;49.474;8.616;2024-03-25T02:49:50;3.23;;;2.60;;
7719;SDS011;3902;49.474;8.616;2024-03-25T02:52:16;2.87;;;2.33;;
7719;SDS011;3902;49.474;8.616;2024-03-25T02:54:42;3.57;;;2.90;;
7719;SDS011;3902;49.474;8.616;2024-03-25T02:57:07;4.57;;;3.20;;
7719;SDS011;3902;49.474;8.616;2024-03-25T02:59:33;4.43;;;2.90;;
7719;SDS011;3902;49.474;8.616;2024-03-25T03:01:58;2.80;;;2.53;;
7719;SDS011;3902;49.474;8.616;2024-03-25T03:04:24;4.63;;;3.20;;
7719;SDS011;3902;49.474;8.616;2024-03-25T03:06:49;3.40;;;2.60;;
7719;SDS011;3902;49.474;8.616;2024-03-25T03:09:15;4.30;;;3.20;;
7719;SDS011;3902;49.474;8.616;2024-03-25T03:11:40;2.90;;;2.57;;
7719;SDS011;3902;49.474;8.616;2024-03-25T03:14:07;3.97;;;2.63;;
7719;SDS011;3902;49.474;8.616;2024-03-25T03:16:32;2.83;;;2.50;;
7719;SDS011;3902;49.474;8.616;2024-03-25T03:18:58;3.50;;;2.90;;
7719;SDS011;3902;49.474;8.616;2024-03-25T03:21:23;3.53;;;2.63;;
7719;SDS011;3902;49.474;8.616;2024-03-25T03:23:49;4.87;;;2.80;;
7719;SDS011;3902;49.474;8.616;2024-03-25T03:26:14;4.60;;;2.60;;
7719;SDS011;3902;49.474;8.616;2024-03-25T03:28:40;2.93;;;2.63;;
7719;SDS011;3902;49.474;8.616;2024-03-25T03:31:06;4.63;;;3.33;;
7719;SDS011;3902;49.474;8.616;2024-03-25T03:33:32;4.57;;;2.70;;
7719;SDS011;3902;49.474;8.616;2024-03-25T03:35:57;4.53;;;3.10;;
7719;SDS011;3902;49.474;8.616;2024-03-25T03:38:23;5.00;;;2.87;;
7719;SDS011;3902;49.474;8.616;2024-03-25T03:41:01;3.90;;;2.83;;
7719;SDS011;3902;49.474;8.616;2024-03-25T03:43:28;4.53;;;2.90;;
7719;SDS011;3902;49.474;8.616;2024-03-25T03:45:53;4.37;;;2.87;;
7719;SDS011;3902;49.474;8.616;2024-03-25T03:48:19;4.17;;;2.87;;
7719;SDS011;3902;49.474;8.616;2024-03-25T03:50:45;3.20;;;2.90;;
7719;SDS011;3902;49.474;8.616;2024-03-25T03:53:10;5.30;;;3.00;;
7719;SDS011;3902;49.474;8.616;2024-03-25T03:55:36;7.23;;;2.90;;
7719;SDS011;3902;49.474;8.616;2024-03-25T03:58:02;3.77;;;3.37;;
7719;SDS011;3902;49.474;8.616;2024-03-25T04:00:28;5.00;;;3.07;;
7719;SDS011;3902;49.474;8.616;2024-03-25T04:02:53;4.10;;;3.00;;
7719;SDS011;3902;49.474;8.616;2024-03-25T04:05:19;4.00;;;3.00;;
7719;SDS011;3902;49.474;8.616;2024-03-25T04:07:44;4.07;;;2.90;;
7719;SDS011;3902;49.474;8.616;2024-03-25T04:10:10;3.90;;;3.13;;
7719;SDS011;3902;49.474;8.616;2024-03-25T04:12:36;3.57;;;2.77;;
7719;SDS011;3902;49.474;8.616;2024-03-25T04:15:02;3.53;;;2.77;;
7719;SDS011;3902;49.474;8.616;2024-03-25T04:17:28;3.60;;;3.00;;
7719;SDS011;3902;49.474;8.616;2024-03-25T04:19:53;4.77;;;3.33;;
7719;SDS011;3902;49.474;8.616;2024-03-25T04:22:19;3.57;;;2.77;;
7719;SDS011;3902;49.474;8.616;2024-03-25T04:24:44;3.60;;;3.00;;
7719;SDS011;3902;49.474;8.616;2024-03-25T04:27:10;4.40;;;3.53;;
7719;SDS011;3902;49.474;8.616;2024-03-25T04:29:36;3.20;;;2.90;;
7719;SDS011;3902;49.474;8.616;2024-03-25T04:32:01;5.17;;;3.67;;
7719;SDS011;3902;49.474;8.616;2024-03-25T04:34:27;3.93;;;3.23;;
7719;SDS011;3902;49.474;8.616;2024-03-25T04:36:53;5.40;;;3.70;;
7719;SDS011;3902;49.474;8.616;2024-03-25T04:39:19;4.57;;;3.30;;
7719;SDS011;3902;49.474;8.616;2024-03-25T04:41:44;4.90;;;3.50;;
7719;SDS011;3902;49.474;8.616;2024-03-25T04:44:11;3.27;;;2.97;;
7719;SDS011;3902;49.474;8.616;2024-03-25T04:46:36;3.17;;;2.83;;
7719;SDS011;3902;49.474;8.616;2024-03-25T04:49:02;3.40;;;3.10;;
7719;SDS011;3902;49.474;8.616;2024-03-25T04:51:27;4.70;;;3.30;;
7719;SDS011;3902;49.474;8.616;2024-03-25T04:53:53;4.73;;;3.30;;
7719;SDS011;3902;49.474;8.616;2024-03-25T04:56:18;5.73;;;3.80;;
7719;SDS011;3902;49.474;8.616;2024-03-25T04:58:44;5.40;;;3.67;;
7719;SDS011;3902;49.474;8.616;2024-03-25T05:01:09;3.60;;;3.10;;
7719;SDS011;3902;49.474;8.616;2024-03-25T05:03:35;3.80;;;3.40;;
7719;SDS011;3902;49.474;8.616;2024-03-25T05:06:00;5.70;;;2.87;;
7719;SDS011;3902;49.474;8.616;2024-03-25T05:08:25;4.23;;;3.07;;
7719;SDS011;3902;49.474;8.616;2024-03-25T05:10:51;4.30;;;3.17;;
7719;SDS011;3902;49.474;8.616;2024-03-25T05:13:17;4.17;;;3.27;;
7719;SDS011;3902;49.474;8.616;2024-03-25T05:15:49;3.40;;;3.10;;
7719;SDS011;3902;49.474;8.616;2024-03-25T05:18:17;5.53;;;3.30;;
7719;SDS011;3902;49.474;8.616;2024-03-25T05:20:43;5.20;;;2.77;;
7719;SDS011;3902;49.474;8.616;2024-03-25T05:23:09;4.60;;;3.90;;
7719;SDS011;3902;49.474;8.616;2024-03-25T05:25:35;4.50;;;3.50;;
7719;SDS011;3902;49.474;8.616;2024-03-25T05:28:01;4.20;;;3.37;;
7719;SDS011;3902;49.474;8.616;2024-03-25T05:30:27;6.67;;;3.60;;
7719;SDS011;3902;49.474;8.616;2024-03-25T05:32:53;4.73;;;3.33;;
7719;SDS011;3902;49.474;8.616;2024-03-25T05:35:18;4.73;;;3.90;;
7719;SDS011;3902;49.474;8.616;2024-03-25T05:37:44;4.83;;;3.60;;
7719;SDS011;3902;49.474;8.616;2024-03-25T05:40:10;5.03;;;3.60;;
7719;SDS011;3902;49.474;8.616;2024-03-25T05:42:40;5.50;;;3.90;;
7719;SDS011;3902;49.474;8.616;2024-03-25T05:45:05;5.13;;;4.00;;
7719;SDS011;3902;49.474;8.616;2024-03-25T05:47:31;4.37;;;3.40;;
7719;SDS011;3902;49.474;8.616;2024-03-25T05:49:57;3.00;;;2.47;;
7719;SDS011;3902;49.474;8.616;2024-03-25T05:52:22;5.47;;;3.83;;
7719;SDS011;3902;49.474;8.616;2024-03-25T05:54:48;3.73;;;3.13;;
7719;SDS011;3902;49.474;8.616;2024-03-25T05:57:14;5.30;;;4.00;;
7719;SDS011;3902;49.474;8.616;2024-03-25T05:59:39;4.57;;;3.30;;
7719;SDS011;3902;49.474;8.616;2024-03-25T06:02:05;4.20;;;3.27;;
7719;SDS011;3902;49.474;8.616;2024-03-25T06:04:30;4.83;;;3.70;;
7719;SDS011;3902;49.474;8.616;2024-03-25T06:06:55;4.20;;;3.43;;
7719;SDS011;3902;49.474;8.616;2024-03-25T06:09:21;5.30;;;3.70;;
7719;SDS011;3902;49.474;8.616;2024-03-25T06:11:47;4.10;;;3.53;;
7719;SDS011;3902;49.474;8.616;2024-03-25T06:14:12;5.43;;;3.60;;
7719;SDS011;3902;49.474;8.616;2024-03-25T06:16:37;2.90;;;2.70;;
7719;SDS011;3902;49.474;8.616;2024-03-25T06:19:03;3.93;;;3.40;;
7719;SDS011;3902;49.474;8.616;2024-03-25T06:21:28;3.37;;;3.03;;
7719;SDS011;3902;49.474;8.616;2024-03-25T06:23:54;4.03;;;3.00;;
7719;SDS011;3902;49.474;8.616;2024-03-25T06:26:19;6.47;;;3.53;;
7719;SDS011;3902;49.474;8.616;2024-03-25T06:28:45;5.80;;;3.20;;
7719;SDS011;3902;49.474;8.616;2024-03-25T06:31:10;5.00;;;4.00;;
7719;SDS011;3902;49.474;8.616;2024-03-25T06:33:55;5.30;;;3.23;;
7719;SDS011;3902;49.474;8.616;2024-03-25T06:36:39;4.60;;;3.63;;
7719;SDS011;3902;49.474;8.616;2024-03-25T06:39:04;5.73;;;4.20;;
7719;SDS011;3902;49.474;8.616;2024-03-25T06:41:31;6.07;;;3.83;;
7719;SDS011;3902;49.474;8.616;2024-03-25T06:43:56;4.63;;;3.80;;
7719;SDS011;3902;49.474;8.616;2024-03-25T06:46:22;4.93;;;3.67;;
7719;SDS011;3902;49.474;8.616;2024-03-25T06:48:47;5.00;;;4.10;;
7719;SDS011;3902;49.474;8.616;2024-03-25T06:51:13;8.67;;;4.07;;
7719;SDS011;3902;49.474;8.616;2024-03-25T06:53:39;6.13;;;3.80;;
7719;SDS011;3902;49.474;8.616;2024-03-25T06:56:04;6.03;;;4.10;;
7719;SDS011;3902;49.474;8.616;2024-03-25T06:58:30;4.50;;;3.83;;
7719;SDS011;3902;49.474;8.616;2024-03-25T07:00:56;3.67;;;3.27;;
7719;SDS011;3902;49.474;8.616;2024-03-25T07:03:22;6.10;;;4.33;;
7719;SDS011;3902;49.474;8.616;2024-03-25T07:05:49;5.57;;;3.97;;
7719;SDS011;3902;49.474;8.616;2024-03-25T07:08:17;4.77;;;3.77;;
7719;SDS011;3902;49.474;8.616;2024-03-25T07:10:44;4.63;;;3.67;;
7719;SDS011;3902;49.474;8.616;2024-03-25T07:13:11;4.50;;;3.70;;
7719;SDS011;3902;49.474;8.616;2024-03-25T07:15:37;4.60;;;3.80;;
7719;SDS011;3902;49.474;8.616;2024-03-25T07:18:03;4.57;;;4.17;;
7719;SDS011;3902;49.474;8.616;2024-03-25T07:20:29;6.50;;;4.47;;
7719;SDS011;3902;49.474;8.616;2024-03-25T07:22:55;7.20;;;4.20;;
7719;SDS011;3902;49.474;8.616;2024-03-25T07:25:22;6.00;;;3.90;;
7719;SDS011;3902;49.474;8.616;2024-03-25T07:27:47;4.70;;;3.93;;
7719;SDS011;3902;49.474;8.616;2024-03-25T07:30:17;4.37;;;3.97;;
7719;SDS011;3902;49.474;8.616;2024-03-25T07:32:43;6.90;;;4.80;;
7719;SDS011;3902;49.474;8.616;2024-03-25T07:35:10;4.93;;;4.50;;
7719;SDS011;3902;49.474;8.616;2024-03-25T07:37:36;5.53;;;3.73;;
7719;SDS011;3902;49.474;8.616;2024-03-25T07:40:02;4.37;;;3.87;;
7719;SDS011;3902;49.474;8.616;2024-03-25T07:42:29;5.23;;;4.50;;
7719;SDS011;3902;49.474;8.616;2024-03-25T07:44:55;6.13;;;4.10;;
7719;SDS011;3902;49.474;8.616;2024-03-25T07:47:21;4.80;;;3.97;;
7719;SDS011;3902;49.474;8.616;2024-03-25T07:49:46;6.43;;;4.10;;
7719;SDS011;3902;49.474;8.616;2024-03-25T07:52:12;4.40;;;4.00;;
7719;SDS011;3902;49.474;8.616;2024-03-25T07:54:39;7.77;;;4.10;;
7719;SDS011;3902;49.474;8.616;2024-03-25T07:57:05;5.60;;;4.03;;
7719;SDS011;3902;49.474;8.616;2024-03-25T07:59:30;4.43;;;3.70;;
7719;SDS011;3902;49.474;8.616;2024-03-25T08:01:56;6.10;;;3.90;;
7719;SDS011;3902;49.474;8.616;2024-03-25T08:04:21;6.33;;;3.90;;
7719;SDS011;3902;49.474;8.616;2024-03-25T08:06:47;4.67;;;3.73;;
7719;SDS011;3902;49.474;8.616;2024-03-25T08:09:13;6.50;;;4.10;;
7719;SDS011;3902;49.474;8.616;2024-03-25T08:11:40;7.33;;;3.70;;
7719;SDS011;3902;49.474;8.616;2024-03-25T08:14:08;4.43;;;3.93;;
7719;SDS011;3902;49.474;8.616;2024-03-25T08:16:34;6.93;;;3.50;;
7719;SDS011;3902;49.474;8.616;2024-03-25T08:19:00;4.00;;;3.60;;
7719;SDS011;3902;49.474;8.616;2024-03-25T08:21:26;6.23;;;4.20;;
7719;SDS011;3902;49.474;8.616;2024-03-25T08:23:51;6.57;;;4.07;;
7719;SDS011;3902;49.474;8.616;2024-03-25T08:26:17;6.30;;;4.47;;
7719;SDS011;3902;49.474;8.616;2024-03-25T08:28:42;4.27;;;3.87;;
7719;SDS011;3902;49.474;8.616;2024-03-25T08:31:07;4.60;;;4.07;;
7719;SDS011;3902;49.474;8.616;2024-03-25T08:33:33;4.60;;;3.63;;
7719;SDS011;3902;49.474;8.616;2024-03-25T08:35:58;7.90;;;4.37;;
7719;SDS011;3902;49.474;8.616;2024-03-25T08:38:24;5.43;;;4.07;;
7719;SDS011;3902;49.474;8.616;2024-03-25T08:40:51;4.33;;;3.93;;
7719;SDS011;3902;49.474;8.616;2024-03-25T08:43:17;5.23;;;4.13;;
7719;SDS011;3902;49.474;8.616;2024-03-25T08:45:44;5.40;;;3.87;;
7719;SDS011;3902;49.474;8.616;2024-03-25T08:48:10;6.87;;;4.03;;
7719;SDS011;3902;49.474;8.616;2024-03-25T08:50:36;4.60;;;3.60;;
7719;SDS011;3902;49.474;8.616;2024-03-25T08:53:02;6.10;;;3.70;;
7719;SDS011;3902;49.474;8.616;2024-03-25T08:55:28;7.83;;;3.47;;
7719;SDS011;3902;49.474;8.616;2024-03-25T08:57:54;4.40;;;3.60;;
7719;SDS011;3902;49.474;8.616;2024-03-25T09:00:19;5.30;;;3.40;;
7719;SDS011;3902;49.474;8.616;2024-03-25T09:02:45;5.63;;;3.90;;
7719;SDS011;3902;49.474;8.616;2024-03-25T09:05:11;4.63;;;3.60;;
7719;SDS011;3902;49.474;8.616;2024-03-25T09:07:38;5.23;;;3.90;;
7719;SDS011;3902;49.474;8.616;2024-03-25T09:10:04;6.93;;;4.27;;
7719;SDS011;3902;49.474;8.616;2024-03-25T09:12:49;5.07;;;3.53;;
7719;SDS011;3902;49.474;8.616;2024-03-25T09:15:14;7.53;;;3.40;;
7719;SDS011;3902;49.474;8.616;2024-03-25T09:17:40;5.63;;;3.73;;
7719;SDS011;3902;49.474;8.616;2024-03-25T09:20:05;4.40;;;3.20;;
7719;SDS011;3902;49.474;8.616;2024-03-25T09:22:57;5.13;;;3.40;;
7719;SDS011;3902;49.474;8.616;2024-03-25T09:25:23;5.03;;;3.20;;
7719;SDS011;3902;49.474;8.616;2024-03-25T09:27:49;6.90;;;3.90;;
7719;SDS011;3902;49.474;8.616;2024-03-25T09:30:16;4.03;;;2.83;;
7719;SDS011;3902;49.474;8.616;2024-03-25T09:32:44;5.50;;;3.40;;
7719;SDS011;3902;49.474;8.616;2024-03-25T09:35:10;5.77;;;3.23;;
7719;SDS011;3902;49.474;8.616;2024-03-25T09:37:36;5.00;;;3.53;;
7719;SDS011;3902;49.474;8.616;2024-03-25T09:40:02;6.20;;;3.50;;
7719;SDS011;3902;49.474;8.616;2024-03-25T09:42:34;6.40;;;3.83;;
7719;SDS011;3902;49.474;8.616;2024-03-25T09:45:11;4.23;;;3.23;;
7719;SDS011;3902;49.474;8.616;2024-03-25T09:47:40;5.73;;;3.33;;
7719;SDS011;3902;49.474;8.616;2024-03-25T09:50:06;4.73;;;3.00;;
7719;SDS011;3902;49.474;8.616;2024-03-25T09:52:33;4.30;;;2.97;;
7719;SDS011;3902;49.474;8.616;2024-03-25T09:54:59;4.10;;;3.30;;
7719;SDS011;3902;49.474;8.616;2024-03-25T09:57:24;5.67;;;3.40;;
7719;SDS011;3902;49.474;8.616;2024-03-25T09:59:50;5.33;;;3.00;;
7719;SDS011;3902;49.474;8.616;2024-03-25T10:02:16;3.37;;;2.80;;
7719;SDS011;3902;49.474;8.616;2024-03-25T10:04:46;7.13;;;3.30;;
7719;SDS011;3902;49.474;8.616;2024-03-25T10:07:22;5.03;;;3.13;;
7719;SDS011;3902;49.474;8.616;2024-03-25T10:09:49;6.03;;;3.70;;
7719;SDS011;3902;49.474;8.616;2024-03-25T10:12:15;4.73;;;3.30;;
7719;SDS011;3902;49.474;8.616;2024-03-25T10:14:41;3.53;;;3.10;;
7719;SDS011;3902;49.474;8.616;2024-03-25T10:17:07;7.27;;;3.20;;
7719;SDS011;3902;49.474;8.616;2024-03-25T10:19:33;5.33;;;3.80;;
7719;SDS011;3902;49.474;8.616;2024-03-25T10:22:08;4.60;;;3.50;;
7719;SDS011;3902;49.474;8.616;2024-03-25T10:24:44;3.37;;;2.97;;
7719;SDS011;3902;49.474;8.616;2024-03-25T10:27:16;6.20;;;3.67;;
7719;SDS011;3902;49.474;8.616;2024-03-25T10:29:45;4.10;;;3.30;;
7719;SDS011;3902;49.474;8.616;2024-03-25T10:32:12;4.30;;;2.73;;
7719;SDS011;3902;49.474;8.616;2024-03-25T10:34:38;8.30;;;3.03;;
7719;SDS011;3902;49.474;8.616;2024-03-25T10:37:04;3.30;;;3.00;;
7719;SDS011;3902;49.474;8.616;2024-03-25T10:39:33;7.27;;;2.80;;
7719;SDS011;3902;49.474;8.616;2024-03-25T10:42:13;4.07;;;3.00;;
7719;SDS011;3902;49.474;8.616;2024-03-25T10:44:43;4.10;;;3.13;;
7719;SDS011;3902;49.474;8.616;2024-03-25T10:47:09;3.47;;;3.00;;
7719;SDS011;3902;49.474;8.616;2024-03-25T10:49:49;5.93;;;3.33;;
7719;SDS011;3902;49.474;8.616;2024-03-25T10:52:20;5.50;;;2.93;;
7719;SDS011;3902;49.474;8.616;2024-03-25T10:54:48;4.13;;;2.93;;
7719;SDS011;3902;49.474;8.616;2024-03-25T10:57:14;5.07;;;2.87;;
7719;SDS011;3902;49.474;8.616;2024-03-25T10:59:45;4.03;;;3.37;;
7719;SDS011;3902;49.474;8.616;2024-03-25T11:02:11;6.43;;;3.10;;
7719;SDS011;3902;49.474;8.616;2024-03-25T11:04:37;3.80;;;2.90;;
7719;SDS011;3902;49.474;8.616;2024-03-25T11:07:09;6.03;;;3.87;;
7719;SDS011;3902;49.474;8.616;2024-03-25T11:09:36;4.40;;;2.70;;
7719;SDS011;3902;49.474;8.616;2024-03-25T11:12:02;5.47;;;2.80;;
7719;SDS011;3902;49.474;8.616;2024-03-25T11:14:28;3.67;;;2.60;;
7719;SDS011;3902;49.474;8.616;2024-03-25T11:16:53;3.47;;;2.60;;
7719;SDS011;3902;49.474;8.616;2024-03-25T11:19:20;4.90;;;2.73;;
7719;SDS011;3902;49.474;8.616;2024-03-25T11:21:50;5.30;;;2.53;;
7719;SDS011;3902;49.474;8.616;2024-03-25T11:24:15;4.23;;;2.97;;
7719;SDS011;3902;49.474;8.616;2024-03-25T11:26:51;1.70;;;1.60;;
7719;SDS011;3902;49.474;8.616;2024-03-25T11:29:18;5.37;;;3.33;;
7719;SDS011;3902;49.474;8.616;2024-03-25T11:31:43;2.57;;;2.30;;
7719;SDS011;3902;49.474;8.616;2024-03-25T11:34:10;2.40;;;2.10;;
7719;SDS011;3902;49.474;8.616;2024-03-25T11:36:36;2.43;;;2.00;;
7719;SDS011;3902;49.474;8.616;2024-03-25T11:39:02;3.03;;;2.33;;
7719;SDS011;3902;49.474;8.616;2024-03-25T11:41:29;5.20;;;2.40;;
7719;SDS011;3902;49.474;8.616;2024-03-25T11:43:56;2.60;;;2.07;;
7719;SDS011;3902;49.474;8.616;2024-03-25T11:46:25;3.30;;;2.40;;
7719;SDS011;3902;49.474;8.616;2024-03-25T11:48:51;4.77;;;2.13;;
7719;SDS011;3902;49.474;8.616;2024-03-25T11:51:18;3.50;;;2.03;;
7719;SDS011;3902;49.474;8.616;2024-03-25T11:53:45;3.80;;;1.97;;
7719;SDS011;3902;49.474;8.616;2024-03-25T11:56:10;2.43;;;2.00;;
7719;SDS011;3902;49.474;8.616;2024-03-25T11:58:37;2.57;;;1.87;;
7719;SDS011;3902;49.474;8.616;2024-03-25T12:01:03;2.30;;;2.00;;
7719;SDS011;3902;49.474;8.616;2024-03-25T12:03:28;2.17;;;1.87;;
7719;SDS011;3902;49.474;8.616;2024-03-25T12:05:55;2.30;;;1.67;;
7719;SDS011;3902;49.474;8.616;2024-03-25T12:08:21;2.13;;;1.77;;
7719;SDS011;3902;49.474;8.616;2024-03-25T12:10:50;3.00;;;1.90;;
7719;SDS011;3902;49.474;8.616;2024-03-25T12:13:35;2.57;;;2.00;;
7719;SDS011;3902;49.474;8.616;2024-03-25T12:16:00;3.90;;;2.00;;
7719;SDS011;3902;49.474;8.616;2024-03-25T12:18:27;3.60;;;2.27;;
7719;SDS011;3902;49.474;8.616;2024-03-25T12:20:53;4.13;;;2.20;;
7719;SDS011;3902;49.474;8.616;2024-03-25T12:23:22;3.00;;;2.13;;
7719;SDS011;3902;49.474;8.616;2024-03-25T12:25:50;1.87;;;1.57;;
7719;SDS011;3902;49.474;8.616;2024-03-25T12:28:16;2.00;;;1.60;;
7719;SDS011;3902;49.474;8.616;2024-03-25T12:30:54;3.37;;;2.00;;
7719;SDS011;3902;49.474;8.616;2024-03-25T12:33:23;3.13;;;2.00;;
7719;SDS011;3902;49.474;8.616;2024-03-25T12:35:51;3.17;;;2.37;;
7719;SDS011;3902;49.474;8.616;2024-03-25T12:38:26;2.40;;;1.77;;
7719;SDS011;3902;49.474;8.616;2024-03-25T12:40:54;3.00;;;2.00;;
7719;SDS011;3902;49.474;8.616;2024-03-25T12:43:28;2.90;;;1.83;;
7719;SDS011;3902;49.474;8.616;2024-03-25T12:45:53;2.17;;;1.67;;
7719;SDS011;3902;49.474;8.616;2024-03-25T12:48:19;3.30;;;1.80;;
7719;SDS011;3902;49.474;8.616;2024-03-25T12:50:44;3.70;;;2.00;;
7719;SDS011;3902;49.474;8.616;2024-03-25T12:53:11;3.77;;;2.00;;
7719;SDS011;3902;49.474;8.616;2024-03-25T12:55:42;3.20;;;1.90;;
7719;SDS011;3902;49.474;8.616;2024-03-25T12:58:08;3.50;;;1.97;;
7719;SDS011;3902;49.474;8.616;2024-03-25T13:00:33;1.50;;;1.40;;
7719;SDS011;3902;49.474;8.616;2024-03-25T13:02:59;2.57;;;1.63;;
7719;SDS011;3902;49.474;8.616;2024-03-25T13:05:25;2.43;;;1.63;;
7719;SDS011;3902;49.474;8.616;2024-03-25T13:07:51;2.27;;;1.80;;
7719;SDS011;3902;49.474;8.616;2024-03-25T13:10:16;2.27;;;1.70;;
7719;SDS011;3902;49.474;8.616;2024-03-25T13:12:42;1.83;;;1.50;;
7719;SDS011;3902;49.474;8.616;2024-03-25T13:15:07;2.90;;;1.80;;
7719;SDS011;3902;49.474;8.616;2024-03-25T13:17:33;3.53;;;1.70;;
7719;SDS011;3902;49.474;8.616;2024-03-25T13:19:58;3.00;;;1.60;;
7719;SDS011;3902;49.474;8.616;2024-03-25T13:22:24;1.90;;;1.70;;
7719;SDS011;3902;49.474;8.616;2024-03-25T13:24:50;2.42;;;1.50;;
7719;SDS011;3902;49.474;8.616;2024-03-25T13:27:15;1.85;;;1.60;;
7719;SDS011;3902;49.474;8.616;2024-03-25T13:29:41;1.58;;;1.45;;
7719;SDS011;3902;49.474;8.616;2024-03-25T13:32:06;1.83;;;1.70;;
7719;SDS011;3902;49.474;8.616;2024-03-25T13:34:32;1.90;;;1.65;;
7719;SDS011;3902;49.474;8.616;2024-03-25T13:36:57;2.03;;;1.60;;
7719;SDS011;3902;49.474;8.616;2024-03-25T13:39:23;2.50;;;1.80;;
7719;SDS011;3902;49.474;8.616;2024-03-25T13:41:48;1.80;;;1.40;;
7719;SDS011;3902;49.474;8.616;2024-03-25T13:44:14;3.38;;;1.90;;
7719;SDS011;3902;49.474;8.616;2024-03-25T13:46:40;2.78;;;1.75;;
7719;SDS011;3902;49.474;8.616;2024-03-25T13:49:05;2.17;;;1.50;;
7719;SDS011;3902;49.474;8.616;2024-03-25T13:51:31;2.55;;;1.80;;
7719;SDS011;3902;49.474;8.616;2024-03-25T13:53:56;3.33;;;1.50;;
7719;SDS011;3902;49.474;8.616;2024-03-25T13:56:44;2.05;;;1.80;;
7719;SDS011;3902;49.474;8.616;2024-03-25T13:59:10;2.22;;;1.73;;
7719;SDS011;3902;49.474;8.616;2024-03-25T14:01:35;1.85;;;1.60;;
7719;SDS011;3902;49.474;8.616;2024-03-25T14:04:01;3.33;;;1.67;;
7719;SDS011;3902;49.474;8.616;2024-03-25T14:06:29;2.90;;;1.50;;
7719;SDS011;3902;49.474;8.616;2024-03-25T14:08:54;2.83;;;1.67;;
7719;SDS011;3902;49.474;8.616;2024-03-25T14:11:20;2.95;;;1.60;;
7719;SDS011;3902;49.474;8.616;2024-03-25T14:13:45;1.50;;;1.40;;
7719;SDS011;3902;49.474;8.616;2024-03-25T14:16:11;2.50;;;1.63;;
7719;SDS011;3902;49.474;8.616;2024-03-25T14:18:36;2.55;;;1.50;;
7719;SDS011;3902;49.474;8.616;2024-03-25T14:21:02;1.55;;;1.40;;
7719;SDS011;3902;49.474;8.616;2024-03-25T14:23:28;2.05;;;1.60;;
7719;SDS011;3902;49.474;8.616;2024-03-25T14:25:53;2.83;;;2.03;;
7719;SDS011;3902;49.474;8.616;2024-03-25T14:28:19;2.35;;;1.60;;
7719;SDS011;3902;49.474;8.616;2024-03-25T14:30:45;2.55;;;2.00;;
7719;SDS011;3902;49.474;8.616;2024-03-25T14:33:11;2.20;;;1.60;;
7719;SDS011;3902;49.474;8.616;2024-03-25T14:35:37;1.60;;;1.50;;
7719;SDS011;3902;49.474;8.616;2024-03-25T14:38:02;1.65;;;1.40;;
7719;SDS011;3902;49.474;8.616;2024-03-25T14:40:28;1.58;;;1.40;;
7719;SDS011;3902;49.474;8.616;2024-03-25T14:42:54;3.58;;;1.98;;
7719;SDS011;3902;49.474;8.616;2024-03-25T14:45:19;2.13;;;1.55;;
7719;SDS011;3902;49.474;8.616;2024-03-25T14:47:45;2.17;;;1.85;;
7719;SDS011;3902;49.474;8.616;2024-03-25T14:50:10;2.37;;;1.50;;
7719;SDS011;3902;49.474;8.616;2024-03-25T14:52:36;8.53;;;1.67;;
7719;SDS011;3902;49.474;8.616;2024-03-25T14:55:01;2.20;;;1.40;;
7719;SDS011;3902;49.474;8.616;2024-03-25T14:57:27;2.10;;;1.60;;
7719;SDS011;3902;49.474;8.616;2024-03-25T14:59:52;2.17;;;1.50;;
7719;SDS011;3902;49.474;8.616;2024-03-25T15:02:18;2.33;;;1.60;;
7719;SDS011;3902;49.474;8.616;2024-03-25T15:04:44;1.90;;;1.67;;
7719;SDS011;3902;49.474;8.616;2024-03-25T15:07:10;2.57;;;1.90;;
7719;SDS011;3902;49.474;8.616;2024-03-25T15:09:36;1.80;;;1.40;;
7719;SDS011;3902;49.474;8.616;2024-03-25T15:12:02;2.37;;;1.40;;